sensor_id;sensor_type;location;lat;lon;timestamp;temperature;humidity
26254;DHT22;53339;51.378;0.094;2024-02-23T00:01:57;3.80;86.00
26254;DHT22;53339;51.378;0.094;2024-02-23T00:04:25;3.80;86.00
26254;DHT22;53339;51.378;0.094;2024-02-23T00:06:52;3.80;86.00
26254;DHT22;53339;51.378;0.094;2024-02-23T00:09:20;3.90;86.00
26254;DHT22;53339;51.378;0.094;2024-02-23T00:11:48;3.90;85.90
26254;DHT22;53339;51.378;0.094;2024-02-23T00:14:20;3.90;85.80
26254;DHT22;53339;51.378;0.094;2024-02-23T00:16:48;3.90;85.70
26254;DHT22;53339;51.378;0.094;2024-02-23T00:19:16;4.00;85.70
26254;DHT22;53339;51.378;0.094;2024-02-23T00:21:45;4.00;85.50
26254;DHT22;53339;51.378;0.094;2024-02-23T00:24:17;4.10;85.40
26254;DHT22;53339;51.378;0.094;2024-02-23T00:26:45;4.20;85.30
26254;DHT22;53339;51.378;0.094;2024-02-23T00:29:13;4.20;85.10
26254;DHT22;53339;51.378;0.094;2024-02-23T00:31:41;4.20;85.00
26254;DHT22;53339;51.378;0.094;2024-02-23T00:34:11;4.20;85.00
26254;DHT22;53339;51.378;0.094;2024-02-23T00:36:41;4.20;85.10
26254;DHT22;53339;51.378;0.094;2024-02-23T00:39:09;4.20;85.00
26254;DHT22;53339;51.378;0.094;2024-02-23T00:41:37;4.20;85.00
26254;DHT22;53339;51.378;0.094;2024-02-23T00:44:04;4.20;85.00
26254;DHT22;53339;51.378;0.094;2024-02-23T00:46:32;4.30;84.90
26254;DHT22;53339;51.378;0.094;2024-02-23T00:49:00;4.30;84.80
26254;DHT22;53339;51.378;0.094;2024-02-23T00:51:28;4.30;84.80
26254;DHT22;53339;51.378;0.094;2024-02-23T00:53:56;4.30;84.90
26254;DHT22;53339;51.378;0.094;2024-02-23T00:56:23;4.30;84.90
26254;DHT22;53339;51.378;0.094;2024-02-23T00:58:55;4.30;85.00
26254;DHT22;53339;51.378;0.094;2024-02-23T01:01:23;4.20;85.10
26254;DHT22;53339;51.378;0.094;2024-02-23T01:03:54;4.20;85.20
26254;DHT22;53339;51.378;0.094;2024-02-23T01:06:21;4.20;85.30
26254;DHT22;53339;51.378;0.094;2024-02-23T01:08:49;4.20;85.50
26254;DHT22;53339;51.378;0.094;2024-02-23T01:11:17;4.20;85.60
26254;DHT22;53339;51.378;0.094;2024-02-23T01:13:44;4.20;85.60
26254;DHT22;53339;51.378;0.094;2024-02-23T01:16:12;4.20;85.60
26254;DHT22;53339;51.378;0.094;2024-02-23T01:18:40;4.20;85.60
26254;DHT22;53339;51.378;0.094;2024-02-23T01:21:08;4.20;85.70
26254;DHT22;53339;51.378;0.094;2024-02-23T01:23:35;4.20;85.90
26254;DHT22;53339;51.378;0.094;2024-02-23T01:26:03;4.20;86.00
26254;DHT22;53339;51.378;0.094;2024-02-23T01:28:31;4.20;86.00
26254;DHT22;53339;51.378;0.094;2024-02-23T01:30:58;4.20;86.20
26254;DHT22;53339;51.378;0.094;2024-02-23T01:33:26;4.20;86.30
26254;DHT22;53339;51.378;0.094;2024-02-23T01:35:54;4.20;86.50
26254;DHT22;53339;51.378;0.094;2024-02-23T01:38:23;4.20;86.40
26254;DHT22;53339;51.378;0.094;2024-02-23T01:40:52;4.30;86.50
26254;DHT22;53339;51.378;0.094;2024-02-23T01:43:20;4.30;86.40
26254;DHT22;53339;51.378;0.094;2024-02-23T01:45:47;4.30;86.50
26254;DHT22;53339;51.378;0.094;2024-02-23T01:48:15;4.30;86.40
26254;DHT22;53339;51.378;0.094;2024-02-23T01:50:44;4.20;86.30
26254;DHT22;53339;51.378;0.094;2024-02-23T01:53:15;4.20;86.50
26254;DHT22;53339;51.378;0.094;2024-02-23T01:55:45;4.20;86.60
26254;DHT22;53339;51.378;0.094;2024-02-23T01:58:13;4.10;86.80
26254;DHT22;53339;51.378;0.094;2024-02-23T02:00:41;4.10;86.80
26254;DHT22;53339;51.378;0.094;2024-02-23T02:03:08;4.10;87.20
26254;DHT22;53339;51.378;0.094;2024-02-23T02:05:38;4.20;87.30
26254;DHT22;53339;51.378;0.094;2024-02-23T02:08:06;4.20;87.30
26254;DHT22;53339;51.378;0.094;2024-02-23T02:10:34;4.20;87.20
26254;DHT22;53339;51.378;0.094;2024-02-23T02:13:05;4.20;87.20
26254;DHT22;53339;51.378;0.094;2024-02-23T02:15:33;4.20;87.30
26254;DHT22;53339;51.378;0.094;2024-02-23T02:18:01;4.20;87.40
26254;DHT22;53339;51.378;0.094;2024-02-23T02:20:32;4.20;87.30
26254;DHT22;53339;51.378;0.094;2024-02-23T02:23:00;4.20;87.40
26254;DHT22;53339;51.378;0.094;2024-02-23T02:25:27;4.20;87.50
26254;DHT22;53339;51.378;0.094;2024-02-23T02:27:55;4.20;87.50
26254;DHT22;53339;51.378;0.094;2024-02-23T02:30:22;4.20;87.30
26254;DHT22;53339;51.378;0.094;2024-02-23T02:32:50;4.20;87.40
26254;DHT22;53339;51.378;0.094;2024-02-23T02:35:18;4.20;87.50
26254;DHT22;53339;51.378;0.094;2024-02-23T02:37:45;4.20;87.60
26254;DHT22;53339;51.378;0.094;2024-02-23T02:40:13;4.10;87.40
26254;DHT22;53339;51.378;0.094;2024-02-23T02:42:41;4.10;87.40
26254;DHT22;53339;51.378;0.094;2024-02-23T02:45:10;4.10;87.60
26254;DHT22;53339;51.378;0.094;2024-02-23T02:47:38;4.10;87.70
26254;DHT22;53339;51.378;0.094;2024-02-23T02:50:06;4.20;87.70
26254;DHT22;53339;51.378;0.094;2024-02-23T02:52:34;4.20;87.80
26254;DHT22;53339;51.378;0.094;2024-02-23T02:55:02;4.20;87.90
26254;DHT22;53339;51.378;0.094;2024-02-23T02:57:29;4.20;87.90
26254;DHT22;53339;51.378;0.094;2024-02-23T02:59:57;4.30;87.90
26254;DHT22;53339;51.378;0.094;2024-02-23T03:02:25;4.30;87.80
26254;DHT22;53339;51.378;0.094;2024-02-23T03:04:52;4.30;87.90
26254;DHT22;53339;51.378;0.094;2024-02-23T03:07:22;4.40;88.00
26254;DHT22;53339;51.378;0.094;2024-02-23T03:09:49;4.50;87.90
26254;DHT22;53339;51.378;0.094;2024-02-23T03:12:18;4.50;87.90
26254;DHT22;53339;51.378;0.094;2024-02-23T03:14:46;4.60;87.80
26254;DHT22;53339;51.378;0.094;2024-02-23T03:17:13;4.60;87.80
26254;DHT22;53339;51.378;0.094;2024-02-23T03:19:41;4.70;87.70
26254;DHT22;53339;51.378;0.094;2024-02-23T03:22:09;4.60;87.40
26254;DHT22;53339;51.378;0.094;2024-02-23T03:24:36;4.60;87.40
26254;DHT22;53339;51.378;0.094;2024-02-23T03:27:04;4.60;87.60
26254;DHT22;53339;51.378;0.094;2024-02-23T03:29:32;4.60;87.70
26254;DHT22;53339;51.378;0.094;2024-02-23T03:32:00;4.60;87.60
26254;DHT22;53339;51.378;0.094;2024-02-23T03:34:28;4.50;87.70
26254;DHT22;53339;51.378;0.094;2024-02-23T03:36:56;4.50;87.70
26254;DHT22;53339;51.378;0.094;2024-02-23T03:39:25;4.40;87.70
26254;DHT22;53339;51.378;0.094;2024-02-23T03:41:53;4.40;87.50
26254;DHT22;53339;51.378;0.094;2024-02-23T03:44:20;4.30;87.60
26254;DHT22;53339;51.378;0.094;2024-02-23T03:46:48;4.20;87.70
26254;DHT22;53339;51.378;0.094;2024-02-23T03:49:16;4.20;88.00
26254;DHT22;53339;51.378;0.094;2024-02-23T03:51:44;4.20;88.20
26254;DHT22;53339;51.378;0.094;2024-02-23T03:54:12;4.20;88.40
26254;DHT22;53339;51.378;0.094;2024-02-23T03:56:40;4.30;88.50
26254;DHT22;53339;51.378;0.094;2024-02-23T03:59:11;4.30;88.60
26254;DHT22;53339;51.378;0.094;2024-02-23T04:01:38;4.30;88.40
26254;DHT22;53339;51.378;0.094;2024-02-23T04:04:07;4.20;88.30
26254;DHT22;53339;51.378;0.094;2024-02-23T04:06:34;4.20;88.50
26254;DHT22;53339;51.378;0.094;2024-02-23T04:09:02;4.20;88.70
26254;DHT22;53339;51.378;0.094;2024-02-23T04:11:32;4.30;88.70
26254;DHT22;53339;51.378;0.094;2024-02-23T04:14:01;4.20;88.50
26254;DHT22;53339;51.378;0.094;2024-02-23T04:16:29;4.20;88.60
26254;DHT22;53339;51.378;0.094;2024-02-23T04:18:57;4.20;88.80
26254;DHT22;53339;51.378;0.094;2024-02-23T04:21:25;4.30;88.90
26254;DHT22;53339;51.378;0.094;2024-02-23T04:23:53;4.30;88.90
26254;DHT22;53339;51.378;0.094;2024-02-23T04:26:20;4.30;89.10
26254;DHT22;53339;51.378;0.094;2024-02-23T04:28:48;4.40;89.20
26254;DHT22;53339;51.378;0.094;2024-02-23T04:31:15;4.40;89.30
26254;DHT22;53339;51.378;0.094;2024-02-23T04:33:43;4.50;89.30
26254;DHT22;53339;51.378;0.094;2024-02-23T04:36:11;4.60;89.50
26254;DHT22;53339;51.378;0.094;2024-02-23T04:38:38;4.70;89.50
26254;DHT22;53339;51.378;0.094;2024-02-23T04:41:06;4.90;89.50
26254;DHT22;53339;51.378;0.094;2024-02-23T04:43:34;4.90;89.40
26254;DHT22;53339;51.378;0.094;2024-02-23T04:46:02;5.00;89.30
26254;DHT22;53339;51.378;0.094;2024-02-23T04:48:30;5.10;89.10
26254;DHT22;53339;51.378;0.094;2024-02-23T04:51:01;5.20;89.00
26254;DHT22;53339;51.378;0.094;2024-02-23T04:53:29;5.20;88.70
26254;DHT22;53339;51.378;0.094;2024-02-23T04:55:56;5.20;88.50
26254;DHT22;53339;51.378;0.094;2024-02-23T04:58:24;5.30;88.30
26254;DHT22;53339;51.378;0.094;2024-02-23T05:00:51;5.40;88.00
26254;DHT22;53339;51.378;0.094;2024-02-23T05:03:19;5.40;87.60
26254;DHT22;53339;51.378;0.094;2024-02-23T05:05:47;5.40;87.20
26254;DHT22;53339;51.378;0.094;2024-02-23T05:08:15;5.50;86.70
26254;DHT22;53339;51.378;0.094;2024-02-23T05:10:43;5.60;86.50
26254;DHT22;53339;51.378;0.094;2024-02-23T05:13:10;5.60;86.40
26254;DHT22;53339;51.378;0.094;2024-02-23T05:15:38;5.60;86.10
26254;DHT22;53339;51.378;0.094;2024-02-23T05:18:06;5.60;85.60
26254;DHT22;53339;51.378;0.094;2024-02-23T05:20:33;5.70;85.30
26254;DHT22;53339;51.378;0.094;2024-02-23T05:23:01;5.70;85.10
26254;DHT22;53339;51.378;0.094;2024-02-23T05:25:29;5.70;84.80
26254;DHT22;53339;51.378;0.094;2024-02-23T05:27:56;5.70;84.70
26254;DHT22;53339;51.378;0.094;2024-02-23T05:30:24;5.70;84.50
26254;DHT22;53339;51.378;0.094;2024-02-23T05:32:54;5.60;84.40
26254;DHT22;53339;51.378;0.094;2024-02-23T05:35:21;5.60;84.60
26254;DHT22;53339;51.378;0.094;2024-02-23T05:37:49;5.60;84.60
26254;DHT22;53339;51.378;0.094;2024-02-23T05:40:17;5.60;84.50
26254;DHT22;53339;51.378;0.094;2024-02-23T05:42:45;5.60;84.60
26254;DHT22;53339;51.378;0.094;2024-02-23T05:45:12;5.50;84.50
26254;DHT22;53339;51.378;0.094;2024-02-23T05:47:40;5.50;84.70
26254;DHT22;53339;51.378;0.094;2024-02-23T05:50:11;5.50;84.70
26254;DHT22;53339;51.378;0.094;2024-02-23T05:52:38;5.40;84.70
26254;DHT22;53339;51.378;0.094;2024-02-23T05:55:07;5.40;84.60
26254;DHT22;53339;51.378;0.094;2024-02-23T05:57:35;5.30;84.60
26254;DHT22;53339;51.378;0.094;2024-02-23T06:00:03;5.30;84.60
26254;DHT22;53339;51.378;0.094;2024-02-23T06:02:38;5.20;84.70
26254;DHT22;53339;51.378;0.094;2024-02-23T06:05:06;5.20;84.60
26254;DHT22;53339;51.378;0.094;2024-02-23T06:07:35;5.00;84.80
26254;DHT22;53339;51.378;0.094;2024-02-23T06:10:04;5.00;85.10
26254;DHT22;53339;51.378;0.094;2024-02-23T06:12:32;5.00;85.20
26254;DHT22;53339;51.378;0.094;2024-02-23T06:15:00;4.90;85.20
26254;DHT22;53339;51.378;0.094;2024-02-23T06:17:27;4.90;85.30
26254;DHT22;53339;51.378;0.094;2024-02-23T06:19:55;4.90;85.30
26254;DHT22;53339;51.378;0.094;2024-02-23T06:22:26;4.90;85.40
26254;DHT22;53339;51.378;0.094;2024-02-23T06:24:54;4.90;85.40
26254;DHT22;53339;51.378;0.094;2024-02-23T06:27:21;4.90;85.50
26254;DHT22;53339;51.378;0.094;2024-02-23T06:29:49;4.90;85.50
26254;DHT22;53339;51.378;0.094;2024-02-23T06:32:17;4.80;85.50
26254;DHT22;53339;51.378;0.094;2024-02-23T06:34:45;4.80;85.50
26254;DHT22;53339;51.378;0.094;2024-02-23T06:37:13;4.80;85.40
26254;DHT22;53339;51.378;0.094;2024-02-23T06:39:41;4.80;85.50
26254;DHT22;53339;51.378;0.094;2024-02-23T06:42:09;4.80;85.60
26254;DHT22;53339;51.378;0.094;2024-02-23T06:44:37;4.80;85.60
26254;DHT22;53339;51.378;0.094;2024-02-23T06:47:06;4.70;85.60
26254;DHT22;53339;51.378;0.094;2024-02-23T06:49:34;4.70;85.80
26254;DHT22;53339;51.378;0.094;2024-02-23T06:52:01;4.60;85.80
26254;DHT22;53339;51.378;0.094;2024-02-23T06:54:29;4.60;85.90
26254;DHT22;53339;51.378;0.094;2024-02-23T06:56:57;4.60;85.80
26254;DHT22;53339;51.378;0.094;2024-02-23T06:59:25;4.60;86.00
26254;DHT22;53339;51.378;0.094;2024-02-23T07:01:52;4.60;86.20
26254;DHT22;53339;51.378;0.094;2024-02-23T07:04:21;4.60;86.20
26254;DHT22;53339;51.378;0.094;2024-02-23T07:06:48;4.60;86.10
26254;DHT22;53339;51.378;0.094;2024-02-23T07:09:16;4.60;86.10
26254;DHT22;53339;51.378;0.094;2024-02-23T07:11:44;4.60;86.20
26254;DHT22;53339;51.378;0.094;2024-02-23T07:14:12;4.60;86.20
26254;DHT22;53339;51.378;0.094;2024-02-23T07:16:41;4.60;86.20
26254;DHT22;53339;51.378;0.094;2024-02-23T07:19:09;4.60;86.20
26254;DHT22;53339;51.378;0.094;2024-02-23T07:21:37;4.60;86.20
26254;DHT22;53339;51.378;0.094;2024-02-23T07:24:07;4.60;86.20
26254;DHT22;53339;51.378;0.094;2024-02-23T07:26:35;4.60;86.10
26254;DHT22;53339;51.378;0.094;2024-02-23T07:29:03;4.60;86.10
26254;DHT22;53339;51.378;0.094;2024-02-23T07:31:31;4.70;86.10
26254;DHT22;53339;51.378;0.094;2024-02-23T07:33:59;4.70;86.10
26254;DHT22;53339;51.378;0.094;2024-02-23T07:36:27;4.60;86.00
26254;DHT22;53339;51.378;0.094;2024-02-23T07:38:55;4.60;85.80
26254;DHT22;53339;51.378;0.094;2024-02-23T07:41:23;4.60;86.20
26254;DHT22;53339;51.378;0.094;2024-02-23T07:43:50;4.60;86.30
26254;DHT22;53339;51.378;0.094;2024-02-23T07:46:18;4.60;86.30
26254;DHT22;53339;51.378;0.094;2024-02-23T07:48:46;4.60;86.30
26254;DHT22;53339;51.378;0.094;2024-02-23T07:51:15;4.60;86.50
26254;DHT22;53339;51.378;0.094;2024-02-23T07:53:43;4.60;86.50
26254;DHT22;53339;51.378;0.094;2024-02-23T07:56:11;4.70;86.50
26254;DHT22;53339;51.378;0.094;2024-02-23T07:58:40;4.70;86.50
26254;DHT22;53339;51.378;0.094;2024-02-23T08:01:10;4.70;86.50
26254;DHT22;53339;51.378;0.094;2024-02-23T08:03:38;4.80;86.40
26254;DHT22;53339;51.378;0.094;2024-02-23T08:06:08;4.90;86.30
26254;DHT22;53339;51.378;0.094;2024-02-23T08:08:35;4.90;86.20
26254;DHT22;53339;51.378;0.094;2024-02-23T08:11:03;4.90;86.10
26254;DHT22;53339;51.378;0.094;2024-02-23T08:13:31;5.00;85.80
26254;DHT22;53339;51.378;0.094;2024-02-23T08:15:59;5.10;85.70
26254;DHT22;53339;51.378;0.094;2024-02-23T08:18:27;5.10;85.50
26254;DHT22;53339;51.378;0.094;2024-02-23T08:20:54;5.20;85.50
26254;DHT22;53339;51.378;0.094;2024-02-23T08:23:23;5.20;85.50
26254;DHT22;53339;51.378;0.094;2024-02-23T08:25:51;5.30;85.40
26254;DHT22;53339;51.378;0.094;2024-02-23T08:28:21;5.20;85.20
26254;DHT22;53339;51.378;0.094;2024-02-23T08:30:48;5.30;85.10
26254;DHT22;53339;51.378;0.094;2024-02-23T08:33:16;5.30;85.20
26254;DHT22;53339;51.378;0.094;2024-02-23T08:35:46;5.40;85.20
26254;DHT22;53339;51.378;0.094;2024-02-23T08:38:15;5.40;85.20
26254;DHT22;53339;51.378;0.094;2024-02-23T08:40:43;5.40;85.30
26254;DHT22;53339;51.378;0.094;2024-02-23T08:43:13;5.40;85.30
26254;DHT22;53339;51.378;0.094;2024-02-23T08:45:41;5.50;85.20
26254;DHT22;53339;51.378;0.094;2024-02-23T08:48:08;5.50;85.00
26254;DHT22;53339;51.378;0.094;2024-02-23T08:50:36;5.50;84.90
26254;DHT22;53339;51.378;0.094;2024-02-23T08:53:05;5.60;84.70
26254;DHT22;53339;51.378;0.094;2024-02-23T08:55:33;5.70;84.60
26254;DHT22;53339;51.378;0.094;2024-02-23T08:58:01;5.70;84.60
26254;DHT22;53339;51.378;0.094;2024-02-23T09:00:28;5.80;84.50
26254;DHT22;53339;51.378;0.094;2024-02-23T09:02:56;5.80;84.50
26254;DHT22;53339;51.378;0.094;2024-02-23T09:05:24;5.90;84.40
26254;DHT22;53339;51.378;0.094;2024-02-23T09:07:51;5.90;84.20
26254;DHT22;53339;51.378;0.094;2024-02-23T09:10:21;5.90;84.00
26254;DHT22;53339;51.378;0.094;2024-02-23T09:12:48;5.90;83.90
26254;DHT22;53339;51.378;0.094;2024-02-23T09:15:16;6.00;83.90
26254;DHT22;53339;51.378;0.094;2024-02-23T09:17:43;6.10;83.80
26254;DHT22;53339;51.378;0.094;2024-02-23T09:20:11;6.10;83.80
26254;DHT22;53339;51.378;0.094;2024-02-23T09:22:39;6.20;83.70
26254;DHT22;53339;51.378;0.094;2024-02-23T09:25:07;6.20;83.60
26254;DHT22;53339;51.378;0.094;2024-02-23T09:27:36;6.30;83.40
26254;DHT22;53339;51.378;0.094;2024-02-23T09:30:08;6.40;82.30
26254;DHT22;53339;51.378;0.094;2024-02-23T09:32:35;6.40;82.00
26254;DHT22;53339;51.378;0.094;2024-02-23T09:35:03;6.40;82.30
26254;DHT22;53339;51.378;0.094;2024-02-23T09:37:31;6.50;82.60
26254;DHT22;53339;51.378;0.094;2024-02-23T09:39:59;6.50;81.70
26254;DHT22;53339;51.378;0.094;2024-02-23T09:42:28;6.50;81.70
26254;DHT22;53339;51.378;0.094;2024-02-23T09:45:00;6.60;81.70
26254;DHT22;53339;51.378;0.094;2024-02-23T09:47:28;6.60;81.70
26254;DHT22;53339;51.378;0.094;2024-02-23T09:49:56;6.60;81.80
26254;DHT22;53339;51.378;0.094;2024-02-23T09:52:24;6.60;81.80
26254;DHT22;53339;51.378;0.094;2024-02-23T09:54:51;6.70;81.70
26254;DHT22;53339;51.378;0.094;2024-02-23T09:57:21;6.70;81.90
26254;DHT22;53339;51.378;0.094;2024-02-23T09:59:49;6.70;81.50
26254;DHT22;53339;51.378;0.094;2024-02-23T10:02:18;6.80;81.00
26254;DHT22;53339;51.378;0.094;2024-02-23T10:04:48;6.90;80.90
26254;DHT22;53339;51.378;0.094;2024-02-23T10:07:17;6.90;80.70
26254;DHT22;53339;51.378;0.094;2024-02-23T10:09:45;7.00;80.50
26254;DHT22;53339;51.378;0.094;2024-02-23T10:12:13;7.00;80.50
26254;DHT22;53339;51.378;0.094;2024-02-23T10:14:41;7.00;80.30
26254;DHT22;53339;51.378;0.094;2024-02-23T10:17:10;7.10;80.20
26254;DHT22;53339;51.378;0.094;2024-02-23T10:19:37;7.10;80.20
26254;DHT22;53339;51.378;0.094;2024-02-23T10:22:06;7.10;80.40
26254;DHT22;53339;51.378;0.094;2024-02-23T10:24:33;7.10;79.90
26254;DHT22;53339;51.378;0.094;2024-02-23T10:27:01;7.20;80.20
26254;DHT22;53339;51.378;0.094;2024-02-23T10:29:30;7.30;79.60
26254;DHT22;53339;51.378;0.094;2024-02-23T10:31:58;7.30;79.50
26254;DHT22;53339;51.378;0.094;2024-02-23T10:34:27;7.40;80.00
26254;DHT22;53339;51.378;0.094;2024-02-23T10:36:55;7.40;80.50
26254;DHT22;53339;51.378;0.094;2024-02-23T10:39:24;7.50;80.70
26254;DHT22;53339;51.378;0.094;2024-02-23T10:41:57;7.50;80.40
26254;DHT22;53339;51.378;0.094;2024-02-23T10:44:28;7.60;80.30
26254;DHT22;53339;51.378;0.094;2024-02-23T10:46:58;7.70;80.20
26254;DHT22;53339;51.378;0.094;2024-02-23T10:49:27;7.80;80.20
26254;DHT22;53339;51.378;0.094;2024-02-23T10:51:56;7.90;79.00
26254;DHT22;53339;51.378;0.094;2024-02-23T10:54:25;8.00;77.80
26254;DHT22;53339;51.378;0.094;2024-02-23T10:56:53;8.00;77.70
26254;DHT22;53339;51.378;0.094;2024-02-23T10:59:23;8.10;77.20
26254;DHT22;53339;51.378;0.094;2024-02-23T11:01:53;8.30;77.30
26254;DHT22;53339;51.378;0.094;2024-02-23T11:04:21;8.40;77.40
26254;DHT22;53339;51.378;0.094;2024-02-23T11:06:54;8.40;76.30
26254;DHT22;53339;51.378;0.094;2024-02-23T11:09:24;8.50;76.40
26254;DHT22;53339;51.378;0.094;2024-02-23T11:11:53;8.60;76.30
26254;DHT22;53339;51.378;0.094;2024-02-23T11:17:22;8.70;76.90
26254;DHT22;53339;51.378;0.094;2024-02-23T11:19:50;8.90;75.60
26254;DHT22;53339;51.378;0.094;2024-02-23T11:22:30;8.90;74.70
26254;DHT22;53339;51.378;0.094;2024-02-23T11:25:07;8.90;75.10
26254;DHT22;53339;51.378;0.094;2024-02-23T11:27:38;9.00;75.30
26254;DHT22;53339;51.378;0.094;2024-02-23T11:30:11;9.20;76.10
26254;DHT22;53339;51.378;0.094;2024-02-23T11:32:43;9.20;75.70
26254;DHT22;53339;51.378;0.094;2024-02-23T11:35:12;9.10;75.40
26254;DHT22;53339;51.378;0.094;2024-02-23T11:40:20;9.10;75.30
26254;DHT22;53339;51.378;0.094;2024-02-23T11:42:48;8.90;75.30
26254;DHT22;53339;51.378;0.094;2024-02-23T11:45:16;8.90;75.60
26254;DHT22;53339;51.378;0.094;2024-02-23T11:47:46;8.90;75.10
26254;DHT22;53339;51.378;0.094;2024-02-23T11:50:14;9.00;75.20
26254;DHT22;53339;51.378;0.094;2024-02-23T11:52:47;9.00;75.20
26254;DHT22;53339;51.378;0.094;2024-02-23T11:55:19;9.20;75.20
26254;DHT22;53339;51.378;0.094;2024-02-23T11:57:50;9.20;74.10
26254;DHT22;53339;51.378;0.094;2024-02-23T12:00:23;9.30;73.30
26254;DHT22;53339;51.378;0.094;2024-02-23T12:02:51;9.30;73.30
26254;DHT22;53339;51.378;0.094;2024-02-23T12:05:19;9.20;73.30
26254;DHT22;53339;51.378;0.094;2024-02-23T12:07:46;9.20;73.40
26254;DHT22;53339;51.378;0.094;2024-02-23T12:10:14;9.20;72.90
26254;DHT22;53339;51.378;0.094;2024-02-23T12:12:43;9.20;73.00
26254;DHT22;53339;51.378;0.094;2024-02-23T12:15:11;9.20;73.90
26254;DHT22;53339;51.378;0.094;2024-02-23T12:17:47;9.20;73.80
26254;DHT22;53339;51.378;0.094;2024-02-23T12:20:15;9.30;73.80
26254;DHT22;53339;51.378;0.094;2024-02-23T12:22:43;9.30;74.30
26254;DHT22;53339;51.378;0.094;2024-02-23T12:25:12;9.30;73.80
26254;DHT22;53339;51.378;0.094;2024-02-23T12:27:41;9.30;73.30
26254;DHT22;53339;51.378;0.094;2024-02-23T12:30:15;9.30;73.20
26254;DHT22;53339;51.378;0.094;2024-02-23T12:32:44;9.30;73.00
26254;DHT22;53339;51.378;0.094;2024-02-23T12:35:13;9.20;73.80
26254;DHT22;53339;51.378;0.094;2024-02-23T12:37:43;9.30;73.90
26254;DHT22;53339;51.378;0.094;2024-02-23T12:40:12;9.30;74.70
26254;DHT22;53339;51.378;0.094;2024-02-23T12:42:41;9.30;74.80
26254;DHT22;53339;51.378;0.094;2024-02-23T12:45:08;9.30;74.80
26254;DHT22;53339;51.378;0.094;2024-02-23T12:47:36;9.40;75.00
26254;DHT22;53339;51.378;0.094;2024-02-23T12:50:04;9.40;74.00
26254;DHT22;53339;51.378;0.094;2024-02-23T12:52:33;9.50;73.80
26254;DHT22;53339;51.378;0.094;2024-02-23T12:55:01;9.50;74.20
26254;DHT22;53339;51.378;0.094;2024-02-23T12:57:29;9.50;73.90
26254;DHT22;53339;51.378;0.094;2024-02-23T12:59:56;9.50;74.20
26254;DHT22;53339;51.378;0.094;2024-02-23T13:02:24;9.50;74.40
26254;DHT22;53339;51.378;0.094;2024-02-23T13:04:52;9.60;74.80
26254;DHT22;53339;51.378;0.094;2024-02-23T13:07:19;9.60;73.60
26254;DHT22;53339;51.378;0.094;2024-02-23T13:09:47;9.50;73.20
26254;DHT22;53339;51.378;0.094;2024-02-23T13:12:15;9.50;72.50
26254;DHT22;53339;51.378;0.094;2024-02-23T13:14:42;9.40;72.70
26254;DHT22;53339;51.378;0.094;2024-02-23T13:17:10;9.50;73.50
26254;DHT22;53339;51.378;0.094;2024-02-23T13:19:38;9.50;73.30
26254;DHT22;53339;51.378;0.094;2024-02-23T13:22:05;9.60;72.80
26254;DHT22;53339;51.378;0.094;2024-02-23T13:24:33;9.60;73.10
26254;DHT22;53339;51.378;0.094;2024-02-23T13:27:01;9.60;73.90
26254;DHT22;53339;51.378;0.094;2024-02-23T13:29:29;9.70;74.90
26254;DHT22;53339;51.378;0.094;2024-02-23T13:31:57;9.70;75.00
26254;DHT22;53339;51.378;0.094;2024-02-23T13:34:24;9.80;74.50
26254;DHT22;53339;51.378;0.094;2024-02-23T13:36:52;9.80;73.90
26254;DHT22;53339;51.378;0.094;2024-02-23T13:39:20;9.80;72.90
26254;DHT22;53339;51.378;0.094;2024-02-23T13:41:48;9.80;71.90
26254;DHT22;53339;51.378;0.094;2024-02-23T13:44:15;9.80;72.80
26254;DHT22;53339;51.378;0.094;2024-02-23T13:46:43;9.80;72.90
26254;DHT22;53339;51.378;0.094;2024-02-23T13:49:11;9.80;72.80
26254;DHT22;53339;51.378;0.094;2024-02-23T13:51:41;9.90;72.20
26254;DHT22;53339;51.378;0.094;2024-02-23T13:54:08;10.00;72.30
26254;DHT22;53339;51.378;0.094;2024-02-23T13:56:36;10.10;71.50
26254;DHT22;53339;51.378;0.094;2024-02-23T13:59:04;10.20;71.50
26254;DHT22;53339;51.378;0.094;2024-02-23T14:01:33;10.40;71.90
26254;DHT22;53339;51.378;0.094;2024-02-23T14:04:06;10.50;71.30
26254;DHT22;53339;51.378;0.094;2024-02-23T14:06:34;10.50;70.40
26254;DHT22;53339;51.378;0.094;2024-02-23T14:09:02;10.40;70.60
26254;DHT22;53339;51.378;0.094;2024-02-23T14:11:31;10.50;70.30
26254;DHT22;53339;51.378;0.094;2024-02-23T14:13:59;10.60;71.20
26254;DHT22;53339;51.378;0.094;2024-02-23T14:16:26;10.60;71.80
26254;DHT22;53339;51.378;0.094;2024-02-23T14:18:54;10.60;71.30
26254;DHT22;53339;51.378;0.094;2024-02-23T14:21:22;10.60;69.80
26254;DHT22;53339;51.378;0.094;2024-02-23T14:23:52;10.50;69.00
26254;DHT22;53339;51.378;0.094;2024-02-23T14:26:20;10.20;69.10
26254;DHT22;53339;51.378;0.094;2024-02-23T14:28:47;10.00;69.60
26254;DHT22;53339;51.378;0.094;2024-02-23T14:31:16;9.90;70.40
26254;DHT22;53339;51.378;0.094;2024-02-23T14:33:44;9.80;69.70
26254;DHT22;53339;51.378;0.094;2024-02-23T14:36:14;9.80;70.60
26254;DHT22;53339;51.378;0.094;2024-02-23T14:38:41;9.80;71.30
26254;DHT22;53339;51.378;0.094;2024-02-23T14:41:09;9.80;72.30
26254;DHT22;53339;51.378;0.094;2024-02-23T14:43:37;9.80;72.30
26254;DHT22;53339;51.378;0.094;2024-02-23T14:46:06;9.80;72.20
26254;DHT22;53339;51.378;0.094;2024-02-23T14:48:36;9.70;72.70
26254;DHT22;53339;51.378;0.094;2024-02-23T14:51:06;9.60;72.70
26254;DHT22;53339;51.378;0.094;2024-02-23T14:53:36;9.60;73.30
26254;DHT22;53339;51.378;0.094;2024-02-23T14:56:05;9.60;72.30
26254;DHT22;53339;51.378;0.094;2024-02-23T14:58:33;9.50;72.60
26254;DHT22;53339;51.378;0.094;2024-02-23T15:01:01;9.40;72.80
26254;DHT22;53339;51.378;0.094;2024-02-23T15:03:29;9.40;73.40
26254;DHT22;53339;51.378;0.094;2024-02-23T15:05:58;9.40;73.00
26254;DHT22;53339;51.378;0.094;2024-02-23T15:08:26;9.40;72.90
26254;DHT22;53339;51.378;0.094;2024-02-23T15:10:54;9.30;72.90
26254;DHT22;53339;51.378;0.094;2024-02-23T15:13:22;9.20;72.20
26254;DHT22;53339;51.378;0.094;2024-02-23T15:15:53;9.20;72.40
26254;DHT22;53339;51.378;0.094;2024-02-23T15:18:21;9.10;71.80
26254;DHT22;53339;51.378;0.094;2024-02-23T15:20:49;9.10;71.70
26254;DHT22;53339;51.378;0.094;2024-02-23T15:23:19;8.90;71.70
26254;DHT22;53339;51.378;0.094;2024-02-23T15:25:49;8.70;71.90
26254;DHT22;53339;51.378;0.094;2024-02-23T15:28:20;8.40;71.90
26254;DHT22;53339;51.378;0.094;2024-02-23T15:30:50;8.10;72.50
26254;DHT22;53339;51.378;0.094;2024-02-23T15:33:19;7.90;73.40
26254;DHT22;53339;51.378;0.094;2024-02-23T15:35:47;7.60;73.90
26254;DHT22;53339;51.378;0.094;2024-02-23T15:38:14;7.50;74.50
26254;DHT22;53339;51.378;0.094;2024-02-23T15:40:42;7.40;75.10
26254;DHT22;53339;51.378;0.094;2024-02-23T15:43:10;7.10;75.60
26254;DHT22;53339;51.378;0.094;2024-02-23T15:45:37;6.90;76.40
26254;DHT22;53339;51.378;0.094;2024-02-23T15:48:10;6.60;77.20
26254;DHT22;53339;51.378;0.094;2024-02-23T15:50:40;6.30;78.20
26254;DHT22;53339;51.378;0.094;2024-02-23T15:53:16;6.20;79.10
26254;DHT22;53339;51.378;0.094;2024-02-23T15:55:44;6.10;79.90
26254;DHT22;53339;51.378;0.094;2024-02-23T15:58:12;6.00;80.30